Logo AVAMET
Benvolgut visitant, si us plau, ingressa Recuperar contrasenya

Ondara

Dades diàries. Acumulats / Últims 30 dies disponibles

Data Temperatura (°C) Humitat rel. (%) Pressió rel. (hPa) Vent (km/h) Precipitació
Mínima Mitjana Màxima Amplitud
tèrmica
Mínima Mitjana Màxima Mínima Mitjana Màxima Predom. Mitjana Ràfega
màxima
Total
(mm)
Índex-n
Mínima Mitjana Màxima Mínima Mitjana Màxima n
0 a 1
P0 max
mm 5'
Dades mensuals acumulades fins l'últim dia disponible
10/2019 11,6 16,7 19,2 21,7 18,1 27,1 32,5 20,9 21 65 93 1.000 1.011 1.018   5,0 61,8 6,7
Dades anuals acumulades fins l'últim dia disponible
2019 1,7 14,8 27,7 19,7 12,8 25,0 39,3 37,6 16 63 99 989 1.012 1.031   5,8 65,1 516,4
Últims 30 dies disponibles
21-10-2019 13,7     15,4     18,1 4,4 42 72 92 1.011 1.012 1.014 SO 3,9 18,5 4,4 0,10 0,30
20-10-2019 18,1     20,9     24,8 6,7 33 58 78 1.000 1.004 1.011 SO 5,2 42,6 0,0
19-10-2019 15,1     21,1     27,3 12,2 40 58 79 1.002 1.005 1.008 S 6,7 31,5 0,0
18-10-2019 15,8     21,9     28,6 12,8 37 53 73 1.008 1.011 1.013 SSO 4,3 20,9 0,0
17-10-2019 13,7     20,4     27,7 14,0 28 49 64 1.010 1.012 1.013 S 4,8 20,9 0,0
16-10-2019 11,6     18,6     26,4 14,8 30 49 66 1.011 1.014 1.016 SSO 4,8 27,8 0,0
15-10-2019 14,3     19,6     26,2 11,9 24 41 59 1.009 1.013 1.016 OSO 10,9 61,8 0,0
14-10-2019 18,7     21,6     24,3 5,6 44 82 93 1.006 1.009 1.012 SSO 2,9 45,0 2,3 0,42 1,00
13-10-2019 18,9     22,4     27,6 8,7 64 81 89 1.011 1.012 1.013 SSO 3,1 16,6 0,0
12-10-2019 18,4     22,1     26,7 8,3 66 79 88 1.012 1.013 1.015 SSO 2,1 11,1 0,0
11-10-2019 17,8     21,9     26,1 8,3 61 78 89 1.014 1.016 1.018 S 4,6 26,3 0,0
10-10-2019 17,8     22,5     28,2 10,4 50 75 91 1.015 1.016 1.017 SSO 3,0 13,7 0,0
09-10-2019 17,0     22,3     28,7 11,7 53 71 85 1.010 1.012 1.014 S 6,0 25,9 0,0
08-10-2019 16,3     21,8     28,1 11,8 54 70 85 1.012 1.014 1.016 SSO 6,4 30,5 0,0
07-10-2019 18,6     22,7     27,9 9,3 42 69 90 1.010 1.012 1.014 SSO 4,3 24,4 0,0
06-10-2019 18,7     22,5     27,4 8,7 60 79 89 1.011 1.012 1.014 S 4,5 22,6 0,0
05-10-2019 17,6     22,3     27,9 10,3 57 72 88 1.009 1.010 1.012 SSO 4,6 20,4 0,0
04-10-2019 15,2     21,9     28,9 13,7 38 61 76 1.008 1.011 1.013 S 6,0 29,6 0,0
03-10-2019 16,4     21,1     26,7 10,3 37 60 77 1.010 1.012 1.013 S 6,3 26,3 0,0
02-10-2019 19,2     25,9     29,6 10,4 22 39 67 1.005 1.009 1.012 SO 7,4 38,9 0,0
01-10-2019 18,7     25,8     32,5 13,8 21 63 91 1.004 1.006 1.011 S 4,2 42,6 0,0
30-09-2019 17,4     23,5     29,8 12,4 58 74 89 1.010 1.011 1.013 S 2,9 13,7 0,0
29-09-2019 18,2     23,9     30,2 12,0 49 73 91 1.010 1.012 1.015 S 5,2 24,4 0,0
28-09-2019 20,5     24,1     29,8 9,3 58 79 90 1.013 1.014 1.016 SO 2,7 20,4 0,0
27-09-2019 18,3     24,0     30,4 12,1 44 70 85 1.011 1.012 1.014 SSE 6,4 26,3 0,0
26-09-2019 19,4     23,5     28,9 9,5 56 77 90 1.012 1.013 1.015 S 6,2 35,9 0,0
25-09-2019 21,7     26,3     29,8 8,1 30 56 87 1.008 1.010 1.013 SSO 7,4 43,1 0,0
24-09-2019 17,8     24,0     33,8 16,0 32 62 78 1.008 1.011 1.014 S 5,8 24,1 0,0
23-09-2019 21,5     25,0     28,8 7,3 39 53 77 1.011 1.013 1.015 SSO 6,0 31,6 0,0
22-09-2019 21,2     25,3     29,8 8,6 52 72 90 1.007 1.008 1.011 S 4,1 24,4 0,0
Últims 13 mesos disponibles
09/2019 14,9 19,8 22,8 23,8 23,4 28,5 35,3 20,4 49 73 91 1.005 1.012 1.018 S 4,6 59,9 164,0
08/2019 19,0 22,3 27,5 27,1 27,6 32,3 38,5 19,5 47 66 76 1.005 1.010 1.015 S 5,1 45,0 37,9
07/2019 20,6 22,3 27,7 27,6 26,2 32,6 39,3 18,7 40 60 73 1.000 1.009 1.016 SSE 5,5 53,8 0,8
06/2019 13,1 17,8 22,6 23,3 22,4 28,5 36,6 23,5 36 60 78 1.004 1.010 1.017 SSE 6,1 51,8 0,0
05/2019 9,5 14,2 21,6 19,2 19,5 24,1 31,6 22,1 46 64 82 1.000 1.010 1.019 S 5,8 62,9 10,0
04/2019 8,2 11,6 14,6 15,8 14,3 20,4 29,3 21,1 42 66 94 995 1.008 1.020 S 6,6 57,4 236,8
03/2019 6,6 9,1 13,7 14,7 13,8 20,7 28,9 22,3 35 58 91 1.005 1.018 1.025 S 5,6 54,2 56,1
02/2019 4,6 7,0 12,1 12,3 13,1 18,6 25,3 20,7 32 62 80 991 1.020 1.029 S 6,2 61,8 0,0
01/2019 1,7 6,8 14,1 11,4 12,8 17,4 21,4 19,7 34 58 81 998 1.014 1.025 ESE 7,1 65,1 4,1
12/2018 4,9 8,3 11,8 13,0 13,4 19,5 25,0 20,1 49 70 90 1.004 1.020 1.026 E 5,1 59,9 33,2
11/2018 6,3 11,5 16,9 15,1 14,4 19,6 25,6 19,3 42 69 93 996 1.010 1.018 ESE 5,6 66,6 117,0
10/2018 9,4 14,7 17,9 18,6 16,1 23,9 29,5 20,1 38 70 86 995 1.009 1.020 5,4 66,6 92,7
09/2018 14,5 20,9 23,5 24,6 24,3 29,3 34,4 19,9 58 74 88 1.007 1.013 1.022 4,3 46,3 50,8
Tots els anys disponibles
2018 -1,0 14,8 26,6 19,1 6,9 24,0 37,9 38,9 20 63 93 988 1.010 1.026 SSO 5,4 67,2 465,0
2017 0,9 14,4 26,7 19,0 9,2 23,7 36,3 35,4 19 58 91 988 1.017 1.033 S 0,0 75,0 851,9
Temperatura (°C)
Humitat relativa (%)
Velocitat del vent i ràfega màxima (km/h)
Direcció del vent (°)
Pressió (hPa)
Precipitació (mm)
Nota sobre les dades: s'avisa a l'usuari de la provisionalitat i no oficialitat d'aquestes dades
Logo AVAMET blanc
Web allotjada a Sollutia
Llicència de Creative CommonsLa web d'AVAMET i els seus continguts estan subjectes a una llicència de
Reconeixement - No Comercial - Compartir igual
Últimes estacions: Sueca - Centre (Inforatge), Xàbia - La Plana (Soci), Banyeres de Mariola - Molí Sol (Soci), Villena - Villa Ventín (Soci), Benissa - Convent (Soci), Xàbia Fontanella (Soci), Castielfabib (Soci) --- Properes estacions: Villena - Serra de Salines (Soci) - - -